KAAF/AAF METAR and TAF weather

Enter ICAO airport designator
Station Type Date Time Source
KAAF METAR 2021/09/24 04:53 UTC NOAA

KAAF 240453Z AUTO 03005KT 10SM CLR 18/14 A3001 RMK AO2 SLP160 T01780144 402780178 $


Station Type Date Time Source
KAAF Decoded METAR 2021/09/24 04:53 UTC NOAA

APALACHICOLA MUNICIPAL AIRPORT, FL, United States (KAAF) 29-44N 085-01W 5M
Sep 24, 2021 - 12:53 AM EDT / 2021.09.24 0453 UTC
Wind: from the NNE (030 degrees) at 6 MPH (5 KT):0
Visibility: 10 mile(s):0
Sky conditions: clear
Temperature: 64.0 F (17.8 C)
Dew Point: 57.9 F (14.4 C)
Relative Humidity: 80%
Pressure (altimeter): 30.01 in. Hg (1016 hPa)
ob: KAAF 240453Z AUTO 03005KT 10SM CLR 18/14 A3001 RMK AO2 SLP160 T01780144 402780178
cycle: 5

Station Type Date Time Source
KAAF TAF UTC NOAA

Error!

Example: see airport list